createdAt,value
2019-02-16T00:01:51.105Z,98605.00
2019-02-16T00:04:22.222Z,98600.00
2019-02-16T00:06:53.803Z,98598.00
2019-02-16T00:09:25.356Z,98597.00
2019-02-16T00:11:56.526Z,98595.00
2019-02-16T00:14:27.607Z,98603.00
2019-02-16T00:16:58.646Z,98597.00
2019-02-16T00:19:29.714Z,98591.00
2019-02-16T00:22:00.880Z,98598.00
2019-02-16T00:24:31.939Z,98597.00
2019-02-16T00:27:03.100Z,98596.00
2019-02-16T00:29:34.330Z,98593.00
2019-02-16T00:32:05.697Z,98596.00
2019-02-16T00:34:36.814Z,98589.00
2019-02-16T00:37:07.938Z,98599.00
2019-02-16T00:39:39.142Z,98594.00
2019-02-16T00:42:10.723Z,98582.00
2019-02-16T00:44:42.115Z,98593.00
2019-02-16T00:47:13.131Z,98580.00
2019-02-16T00:49:44.316Z,98581.00
2019-02-16T00:52:15.806Z,98584.00
2019-02-16T00:54:46.994Z,98579.00
2019-02-16T00:57:18.142Z,98577.00
2019-02-16T00:59:49.545Z,98573.00
2019-02-16T01:02:20.971Z,98568.00
2019-02-16T01:04:52.087Z,98559.00
2019-02-16T01:07:23.256Z,98555.00
2019-02-16T01:09:54.395Z,98558.00
2019-02-16T01:12:25.560Z,98566.00
2019-02-16T01:14:57.425Z,98557.00
2019-02-16T01:17:28.595Z,98555.00
2019-02-16T01:19:59.802Z,98553.00
2019-02-16T01:22:30.987Z,98549.00
2019-02-16T01:25:02.105Z,98550.00
2019-02-16T01:27:33.505Z,98551.00
2019-02-16T01:30:05.430Z,98560.00
2019-02-16T01:32:36.813Z,98548.00
2019-02-16T01:35:09.135Z,98547.00
2019-02-16T01:37:40.399Z,98538.00
2019-02-16T01:40:12.231Z,98530.00
2019-02-16T01:42:43.407Z,98537.00
2019-02-16T01:45:14.684Z,98541.00
2019-02-16T01:47:45.772Z,98531.00
2019-02-16T01:50:16.970Z,98529.00
2019-02-16T01:52:48.145Z,98534.00
2019-02-16T01:55:19.461Z,98520.00
2019-02-16T01:57:50.866Z,98523.00
2019-02-16T02:00:22.054Z,98529.00
2019-02-16T02:02:53.151Z,98530.00
2019-02-16T02:05:25.427Z,98514.00
2019-02-16T02:07:56.449Z,98516.00
2019-02-16T02:10:27.884Z,98518.00
2019-02-16T02:12:58.918Z,98518.00
2019-02-16T02:15:30.187Z,98509.00
2019-02-16T02:18:01.674Z,98504.00
2019-02-16T02:20:32.802Z,98502.00
2019-02-16T02:23:04.263Z,98491.00
2019-02-16T02:25:36.840Z,98492.00
2019-02-16T02:28:08.032Z,98498.00
2019-02-16T02:30:39.535Z,98490.00
2019-02-16T02:33:10.785Z,98492.00
2019-02-16T02:35:42.067Z,98485.00
2019-02-16T02:38:13.480Z,98477.00
2019-02-16T02:40:44.594Z,98474.00
2019-02-16T02:43:16.068Z,98477.00
2019-02-16T02:45:48.233Z,98466.00
2019-02-16T02:48:20.100Z,98461.00
2019-02-16T02:50:51.153Z,98460.00
2019-02-16T02:53:30.678Z,98461.00
2019-02-16T02:55:55.546Z,98470.00
2019-02-16T02:58:26.721Z,98464.00
2019-02-16T03:00:58.272Z,98470.00
2019-02-16T03:03:29.387Z,98458.00
2019-02-16T03:06:02.400Z,98458.00
2019-02-16T03:08:33.578Z,98458.00
2019-02-16T03:11:04.731Z,98475.00
2019-02-16T03:13:35.906Z,98457.00
2019-02-16T03:16:07.258Z,98455.00
2019-02-16T03:18:38.348Z,98463.00
2019-02-16T03:21:09.576Z,98462.00
2019-02-16T03:23:41.129Z,98460.00
2019-02-16T03:26:52.982Z,98457.00
2019-02-16T03:29:42.587Z,98462.00
2019-02-16T03:32:55.374Z,98461.00
2019-02-16T03:36:32.818Z,98451.00
2019-02-16T03:39:21.587Z,98470.00
2019-02-16T03:41:52.866Z,98459.00
2019-02-16T03:44:23.998Z,98454.00
2019-02-16T03:46:55.130Z,98460.00
2019-02-16T03:49:26.315Z,98458.00
2019-02-16T03:51:57.500Z,98461.00
2019-02-16T03:54:28.661Z,98462.00
2019-02-16T03:56:59.710Z,98463.00
2019-02-16T03:59:30.959Z,98461.00
2019-02-16T04:02:02.447Z,98462.00
2019-02-16T04:04:33.742Z,98457.00
2019-02-16T04:07:04.997Z,98462.00
2019-02-16T04:09:36.157Z,98454.00
2019-02-16T04:12:07.637Z,98447.00
2019-02-16T04:14:39.090Z,98453.00
2019-02-16T04:17:10.303Z,98447.00
2019-02-16T04:19:41.743Z,98452.00
2019-02-16T04:22:23.694Z,98465.00
2019-02-16T04:24:46.025Z,98456.00
2019-02-16T04:27:17.236Z,98447.00
2019-02-16T04:29:48.331Z,98457.00
2019-02-16T04:32:19.566Z,98440.00
2019-02-16T04:34:50.762Z,98441.00
2019-02-16T04:37:21.891Z,98444.00
2019-02-16T04:39:53.053Z,98440.00
2019-02-16T04:42:24.331Z,98426.00
2019-02-16T04:44:55.522Z,98429.00
2019-02-16T04:47:27.438Z,98429.00
2019-02-16T04:49:58.702Z,98425.00
2019-02-16T04:52:34.941Z,98419.00
2019-02-16T04:55:03.291Z,98416.00
2019-02-16T04:57:34.773Z,98420.00
2019-02-16T05:00:06.537Z,98415.00
2019-02-16T05:02:38.960Z,98421.00
2019-02-16T05:05:10.474Z,98420.00
2019-02-16T05:07:41.601Z,98417.00
2019-02-16T05:10:13.383Z,98417.00
2019-02-16T05:12:44.535Z,98402.00
2019-02-16T05:15:15.783Z,98408.00
2019-02-16T05:17:47.158Z,98405.00
2019-02-16T05:20:18.165Z,98404.00
2019-02-16T05:22:49.349Z,98403.00
2019-02-16T05:25:20.424Z,98406.00
2019-02-16T05:27:51.885Z,98410.00
2019-02-16T05:30:23.424Z,98400.00
2019-02-16T05:32:54.819Z,98417.00
2019-02-16T05:35:25.994Z,98402.00
2019-02-16T05:37:57.106Z,98406.00
2019-02-16T05:40:28.267Z,98418.00
2019-02-16T05:42:59.561Z,98407.00
2019-02-16T05:45:30.859Z,98398.00
2019-02-16T05:48:02.054Z,98409.00
2019-02-16T05:50:33.592Z,98407.00
2019-02-16T05:53:04.989Z,98405.00
2019-02-16T05:55:36.023Z,98393.00
2019-02-16T05:58:07.518Z,98393.00
2019-02-16T06:00:38.571Z,98397.00
2019-02-16T06:03:10.029Z,98405.00
2019-02-16T06:05:41.134Z,98402.00
2019-02-16T06:08:12.607Z,98400.00
2019-02-16T06:10:43.697Z,98395.00
2019-02-16T06:13:14.913Z,98401.00
2019-02-16T06:15:46.446Z,98410.00
2019-02-16T06:18:17.669Z,98409.00
2019-02-16T06:20:48.840Z,98408.00
2019-02-16T06:23:20.034Z,98404.00
2019-02-16T06:25:51.127Z,98407.00
2019-02-16T06:28:22.250Z,98405.00
2019-02-16T06:30:53.347Z,98414.00
2019-02-16T06:33:24.758Z,98431.00
2019-02-16T06:36:02.482Z,98408.00
2019-02-16T06:38:33.777Z,98427.00
2019-02-16T06:41:05.231Z,98414.00
2019-02-16T06:43:36.551Z,98424.00
2019-02-16T06:46:07.942Z,98425.00
2019-02-16T06:48:39.397Z,98428.00
2019-02-16T06:51:10.574Z,98435.00
2019-02-16T06:53:42.094Z,98440.00
2019-02-16T06:56:27.466Z,98446.00
2019-02-16T06:58:58.951Z,98443.00
2019-02-16T07:01:30.331Z,98439.00
2019-02-16T07:04:02.946Z,98444.00
2019-02-16T07:06:33.988Z,98440.00
2019-02-16T07:09:06.370Z,98435.00
2019-02-16T07:11:37.531Z,98439.00
2019-02-16T07:14:08.668Z,98435.00
2019-02-16T07:16:54.563Z,98436.00
2019-02-16T07:19:47.868Z,98443.00
2019-02-16T07:22:19.083Z,98444.00
2019-02-16T07:24:50.303Z,98446.00
2019-02-16T07:27:21.495Z,98445.00
2019-02-16T07:29:52.707Z,98447.00
2019-02-16T07:32:24.631Z,98446.00
2019-02-16T07:34:56.393Z,98444.00
2019-02-16T07:37:27.463Z,98451.00
2019-02-16T07:39:59.952Z,98447.00
2019-02-16T07:42:49.286Z,98451.00
2019-02-16T07:45:38.031Z,98439.00
2019-02-16T07:48:33.807Z,98443.00
2019-02-16T07:51:17.154Z,98450.00
2019-02-16T07:53:56.536Z,98451.00
2019-02-16T07:56:46.742Z,98452.00
2019-02-16T07:59:40.130Z,98446.00
2019-02-16T08:02:17.358Z,98454.00
2019-02-16T08:05:06.472Z,98447.00
2019-02-16T08:08:01.134Z,98488.00
2019-02-16T08:10:51.739Z,98449.00
2019-02-16T08:13:33.149Z,98454.00
2019-02-16T08:16:13.817Z,98446.00
2019-02-16T08:18:54.816Z,98461.00
2019-02-16T08:21:44.441Z,98451.00
2019-02-16T08:24:38.710Z,98449.00
2019-02-16T08:27:28.862Z,98455.00
2019-02-16T08:30:07.043Z,98455.00
2019-02-16T08:32:49.826Z,98452.00
2019-02-16T08:35:36.870Z,98458.00
2019-02-16T08:38:25.973Z,98453.00
2019-02-16T08:41:28.289Z,98456.00
2019-02-16T08:44:10.233Z,98447.00
2019-02-16T08:47:00.277Z,98451.00
2019-02-16T08:49:47.127Z,98448.00
2019-02-16T08:52:34.580Z,98458.00
2019-02-16T08:55:15.714Z,98449.00
2019-02-16T08:58:04.024Z,98443.00
2019-02-16T09:00:48.629Z,98450.00
2019-02-16T09:03:40.215Z,98441.00
2019-02-16T09:06:29.325Z,98453.00
2019-02-16T09:09:16.310Z,98444.00
2019-02-16T09:11:58.416Z,98456.00
2019-02-16T09:14:53.431Z,98449.00
2019-02-16T09:17:46.526Z,98449.00
2019-02-16T09:20:37.224Z,98452.00
2019-02-16T09:23:21.294Z,98452.00
2019-02-16T09:26:14.421Z,98441.00
2019-02-16T09:29:10.682Z,98462.00
2019-02-16T09:31:59.351Z,98452.00
2019-02-16T09:35:01.627Z,98457.00
2019-02-16T09:37:50.728Z,98460.00
2019-02-16T09:40:38.657Z,98455.00
2019-02-16T09:43:14.943Z,98460.00
2019-02-16T09:46:08.194Z,98450.00
2019-02-16T09:49:01.042Z,98460.00
2019-02-16T09:52:00.027Z,98467.00
2019-02-16T09:54:50.349Z,98454.00
2019-02-16T09:57:46.430Z,98462.00
2019-02-16T10:00:48.874Z,98469.00
2019-02-16T10:03:34.964Z,98471.00
2019-02-16T10:06:43.494Z,98461.00
2019-02-16T10:09:36.694Z,98457.00
2019-02-16T10:12:29.856Z,98457.00
2019-02-16T10:15:12.414Z,98458.00
2019-02-16T10:18:08.139Z,98460.00
2019-02-16T10:20:51.110Z,98451.00
2019-02-16T10:23:50.767Z,98449.00
2019-02-16T10:26:37.934Z,98454.00
2019-02-16T10:29:23.776Z,98447.00
2019-02-16T10:32:12.811Z,98455.00
2019-02-16T10:35:00.317Z,98448.00
2019-02-16T10:37:56.560Z,98450.00
2019-02-16T10:41:05.151Z,98443.00
2019-02-16T10:43:48.590Z,98443.00
2019-02-16T10:46:57.215Z,98439.00
2019-02-16T10:49:56.507Z,98430.00
2019-02-16T10:52:35.785Z,98426.00
2019-02-16T10:55:25.864Z,98423.00
2019-02-16T10:58:15.264Z,98420.00
2019-02-16T11:01:04.399Z,98418.00
2019-02-16T11:03:58.008Z,98413.00
2019-02-16T11:06:48.204Z,98400.00
2019-02-16T11:09:37.492Z,98404.00
2019-02-16T11:12:36.890Z,98401.00
2019-02-16T11:15:40.648Z,98403.00
2019-02-16T11:18:33.761Z,98390.00
2019-02-16T11:21:19.434Z,98394.00
2019-02-16T11:24:02.477Z,98397.00
2019-02-16T11:26:44.562Z,98390.00
2019-02-16T11:29:32.748Z,98394.00
2019-02-16T11:32:24.145Z,98388.00
2019-02-16T11:35:17.160Z,98375.00
2019-02-16T11:38:19.548Z,98394.00
2019-02-16T11:41:18.665Z,98379.00
2019-02-16T11:44:16.983Z,98376.00
2019-02-16T11:47:10.345Z,98385.00
2019-02-16T11:50:03.554Z,98374.00
2019-02-16T11:53:02.499Z,98376.00
2019-02-16T11:55:51.657Z,98373.00
2019-02-16T11:58:35.633Z,98373.00
2019-02-16T12:01:26.257Z,98369.00
2019-02-16T12:04:02.809Z,98371.00
2019-02-16T12:06:37.871Z,98357.00
2019-02-16T12:09:24.617Z,98356.00
2019-02-16T12:12:11.326Z,98367.00
2019-02-16T12:15:04.314Z,98362.00
2019-02-16T12:17:56.792Z,98370.00
2019-02-16T12:20:49.923Z,98362.00
2019-02-16T12:23:55.353Z,98364.00
2019-02-16T12:26:44.104Z,98363.00
2019-02-16T12:29:49.185Z,98355.00
2019-02-16T12:32:30.783Z,98333.00
2019-02-16T12:35:21.437Z,98341.00
2019-02-16T12:38:13.800Z,98331.00
2019-02-16T12:41:08.523Z,98326.00
2019-02-16T12:44:02.049Z,98327.00
2019-02-16T12:46:45.488Z,98333.00
2019-02-16T12:49:38.912Z,98318.00
2019-02-16T12:52:33.046Z,98321.00
2019-02-16T12:55:14.956Z,98324.00
2019-02-16T12:57:53.577Z,98329.00
2019-02-16T13:00:43.672Z,98313.00
2019-02-16T13:03:36.927Z,98321.00
2019-02-16T13:06:20.887Z,98318.00
2019-02-16T13:09:02.938Z,98314.00
2019-02-16T13:11:53.138Z,98326.00
2019-02-16T13:14:32.115Z,98321.00
2019-02-16T13:17:20.947Z,98303.00
2019-02-16T13:20:18.740Z,98310.00
2019-02-16T13:23:11.977Z,98314.00
2019-02-16T13:26:20.461Z,98317.00
2019-02-16T13:29:06.539Z,98313.00
2019-02-16T13:31:45.944Z,98316.00
2019-02-16T13:34:23.704Z,98311.00
2019-02-16T13:37:13.115Z,98311.00
2019-02-16T13:39:56.256Z,98309.00
2019-02-16T13:42:45.106Z,98318.00
2019-02-16T13:45:32.965Z,98306.00
2019-02-16T13:48:12.434Z,98317.00
2019-02-16T13:51:11.877Z,98318.00
2019-02-16T13:53:58.476Z,98306.00
2019-02-16T13:57:04.059Z,98307.00
2019-02-16T13:59:45.336Z,98313.00
2019-02-16T14:02:53.746Z,98310.00
2019-02-16T14:05:42.886Z,98312.00
2019-02-16T14:08:23.818Z,98302.00
2019-02-16T14:11:32.019Z,98314.00
2019-02-16T14:14:10.566Z,98307.00
2019-02-16T14:17:01.094Z,98301.00
2019-02-16T14:19:32.215Z,98295.00
2019-02-16T14:22:03.313Z,98300.00
2019-02-16T14:24:46.828Z,98304.00
2019-02-16T14:27:17.990Z,98298.00
2019-02-16T14:29:49.195Z,98300.00
2019-02-16T14:32:20.429Z,98298.00
2019-02-16T14:34:51.989Z,98297.00
2019-02-16T14:37:48.282Z,98293.00
2019-02-16T14:40:20.428Z,98293.00
2019-02-16T14:42:51.809Z,98288.00
2019-02-16T14:45:22.910Z,98291.00
2019-02-16T14:47:54.142Z,98296.00
2019-02-16T14:50:25.254Z,98292.00
2019-02-16T14:52:56.815Z,98294.00
2019-02-16T14:55:28.244Z,98293.00
2019-02-16T14:57:59.408Z,98286.00
2019-02-16T15:00:30.585Z,98290.00
2019-02-16T15:03:01.799Z,98280.00
2019-02-16T15:05:32.912Z,98273.00
2019-02-16T15:08:04.625Z,98273.00
2019-02-16T15:10:35.756Z,98279.00
2019-02-16T15:13:06.986Z,98283.00
2019-02-16T15:15:38.161Z,98279.00
2019-02-16T15:18:09.524Z,98270.00
2019-02-16T15:20:40.998Z,98270.00
2019-02-16T15:23:12.124Z,98278.00
2019-02-16T15:25:44.264Z,98287.00
2019-02-16T15:28:15.954Z,98273.00
2019-02-16T15:30:47.050Z,98264.00
2019-02-16T15:33:19.275Z,98265.00
2019-02-16T15:35:50.389Z,98270.00
2019-02-16T15:38:21.452Z,98273.00
2019-02-16T15:40:52.832Z,98265.00
2019-02-16T15:43:24.646Z,98268.00
2019-02-16T15:46:02.366Z,98280.00
2019-02-16T15:48:37.869Z,98269.00
2019-02-16T15:51:24.972Z,98266.00
2019-02-16T15:54:02.274Z,98267.00
2019-02-16T15:56:44.349Z,98275.00
2019-02-16T15:59:39.390Z,98282.00
2019-02-16T16:02:30.535Z,98271.00
2019-02-16T16:05:18.230Z,98267.00
2019-02-16T16:08:21.082Z,98273.00
2019-02-16T16:11:24.091Z,98278.00
2019-02-16T16:14:23.768Z,98284.00
2019-02-16T16:17:28.633Z,98286.00
2019-02-16T16:20:38.371Z,98291.00
2019-02-16T16:23:54.830Z,98291.00
2019-02-16T16:27:09.048Z,98300.00
2019-02-16T16:30:11.937Z,98301.00
2019-02-16T16:33:18.807Z,98302.00
2019-02-16T16:36:39.107Z,98301.00
2019-02-16T16:40:09.677Z,98289.00
2019-02-16T16:43:32.502Z,98303.00
2019-02-16T16:46:39.279Z,98301.00
2019-02-16T16:49:46.171Z,98297.00
2019-02-16T16:52:54.659Z,98302.00
2019-02-16T16:55:48.459Z,98298.00
2019-02-16T16:58:49.708Z,98307.00
2019-02-16T17:01:43.579Z,98303.00
2019-02-16T17:04:48.949Z,98316.00
2019-02-16T17:08:03.907Z,98310.00
2019-02-16T17:11:11.282Z,98305.00
2019-02-16T17:14:04.149Z,98314.00
2019-02-16T17:17:05.405Z,98307.00
2019-02-16T17:20:19.561Z,98322.00
2019-02-16T17:23:19.888Z,98307.00
2019-02-16T17:26:18.589Z,98307.00
2019-02-16T17:29:39.595Z,98311.00
2019-02-16T17:33:07.048Z,98324.00
2019-02-16T17:36:03.461Z,98327.00
2019-02-16T17:39:42.318Z,98321.00
2019-02-16T17:43:01.083Z,98325.00
2019-02-16T17:46:41.953Z,98312.00
2019-02-16T17:49:58.974Z,98320.00
2019-02-16T17:53:05.420Z,98314.00
2019-02-16T17:55:54.825Z,98328.00
2019-02-16T17:59:06.313Z,98318.00
2019-02-16T18:02:44.630Z,98324.00
2019-02-16T18:05:48.224Z,98317.00
2019-02-16T18:09:38.842Z,98309.00
2019-02-16T18:12:08.642Z,98312.00
2019-02-16T18:15:34.577Z,98310.00
2019-02-16T18:18:43.713Z,98308.00
2019-02-16T18:22:08.925Z,98299.00
2019-02-16T18:25:32.259Z,98305.00
2019-02-16T18:28:39.788Z,98296.00
2019-02-16T18:31:49.011Z,98311.00
2019-02-16T18:34:57.399Z,98305.00
2019-02-16T18:38:10.474Z,98298.00
2019-02-16T18:41:12.087Z,98294.00
2019-02-16T18:47:44.915Z,98294.00
2019-02-16T18:50:57.457Z,98300.00
2019-02-16T18:54:01.384Z,98284.00
2019-02-16T18:57:06.850Z,98292.00
2019-02-16T19:00:21.584Z,98291.00
2019-02-16T19:03:21.165Z,98300.00
2019-02-16T19:06:39.247Z,98297.00
2019-02-16T19:09:55.443Z,98291.00
2019-02-16T19:12:54.809Z,98301.00
2019-02-16T19:16:23.309Z,98298.00
2019-02-16T19:19:27.803Z,98293.00
2019-02-16T19:22:31.374Z,98300.00
2019-02-16T19:25:34.191Z,98299.00
2019-02-16T19:28:33.956Z,98299.00
2019-02-16T19:32:04.311Z,98294.00
2019-02-16T19:35:22.660Z,98284.00
2019-02-16T19:38:21.044Z,98287.00
2019-02-16T19:41:38.598Z,98281.00
2019-02-16T19:44:58.791Z,98280.00
2019-02-16T19:47:57.768Z,98283.00
2019-02-16T19:51:03.726Z,98278.00
2019-02-16T19:54:21.583Z,98274.00
2019-02-16T19:57:32.048Z,98282.00
2019-02-16T20:00:42.165Z,98283.00
2019-02-16T20:03:40.178Z,98284.00
2019-02-16T20:06:50.297Z,98275.00
2019-02-16T20:09:50.241Z,98263.00
2019-02-16T20:12:59.584Z,98280.00
2019-02-16T20:16:03.103Z,98272.00
2019-02-16T20:19:10.895Z,98278.00
2019-02-16T20:22:09.749Z,98269.00
2019-02-16T20:25:27.933Z,98274.00
2019-02-16T20:28:22.014Z,98136.00
2019-02-16T20:31:30.531Z,98268.00
2019-02-16T20:34:39.059Z,98274.00
2019-02-16T20:38:04.224Z,98274.00
2019-02-16T20:41:19.541Z,98265.00
2019-02-16T20:44:27.449Z,98268.00
2019-02-16T20:47:27.778Z,98281.00
2019-02-16T20:50:50.244Z,98271.00
2019-02-16T20:53:38.470Z,98266.00
2019-02-16T20:56:28.082Z,98275.00
2019-02-16T20:59:27.860Z,98262.00
2019-02-16T21:02:15.112Z,98268.00
2019-02-16T21:05:13.601Z,98250.00
2019-02-16T21:08:04.230Z,98251.00
2019-02-16T21:10:53.818Z,98256.00
2019-02-16T21:13:42.905Z,98249.00
2019-02-16T21:16:33.072Z,98254.00
2019-02-16T21:19:17.763Z,98275.00
2019-02-16T21:21:59.135Z,98264.00
2019-02-16T21:24:48.096Z,98263.00
2019-02-16T21:27:39.209Z,98261.00
2019-02-16T21:30:28.574Z,98259.00
2019-02-16T21:33:12.212Z,98262.00
2019-02-16T21:36:01.932Z,98257.00
2019-02-16T21:38:43.495Z,98257.00
2019-02-16T21:41:39.644Z,98251.00
2019-02-16T21:44:29.281Z,98245.00
2019-02-16T21:47:34.878Z,98259.00
2019-02-16T21:50:18.568Z,98262.00
2019-02-16T21:53:07.183Z,98254.00
2019-02-16T21:55:55.920Z,98254.00
2019-02-16T21:58:45.086Z,98244.00
2019-02-16T22:01:44.597Z,98247.00
2019-02-16T22:04:38.467Z,98247.00
2019-02-16T22:07:31.619Z,98254.00
2019-02-16T22:10:20.336Z,98263.00
2019-02-16T22:13:04.369Z,98253.00
2019-02-16T22:15:37.034Z,98255.00
2019-02-16T22:18:08.212Z,98257.00
2019-02-16T22:20:39.421Z,98262.00
2019-02-16T22:23:10.581Z,98265.00
2019-02-16T22:25:41.789Z,98264.00
2019-02-16T22:28:18.631Z,98255.00
2019-02-16T22:30:46.134Z,98256.00
2019-02-16T22:33:17.308Z,98241.00
2019-02-16T22:35:48.523Z,98249.00
2019-02-16T22:38:19.794Z,98248.00
2019-02-16T22:40:51.196Z,98255.00
2019-02-16T22:43:22.377Z,98257.00
2019-02-16T22:45:53.574Z,98250.00
2019-02-16T22:48:25.319Z,98260.00
2019-02-16T22:50:56.631Z,98266.00
2019-02-16T22:53:27.672Z,98259.00
2019-02-16T22:55:58.845Z,98269.00
2019-02-16T22:58:30.078Z,98266.00
2019-02-16T23:01:01.903Z,98269.00
2019-02-16T23:03:34.781Z,98262.00
2019-02-16T23:06:06.033Z,98271.00
2019-02-16T23:08:37.214Z,98263.00
2019-02-16T23:11:08.439Z,98265.00
2019-02-16T23:13:39.759Z,98257.00
2019-02-16T23:16:11.024Z,98262.00
2019-02-16T23:18:42.539Z,98257.00
2019-02-16T23:21:14.398Z,98262.00
2019-02-16T23:23:45.945Z,98259.00
2019-02-16T23:26:17.038Z,98261.00
2019-02-16T23:28:48.188Z,98255.00
2019-02-16T23:31:19.686Z,98267.00
2019-02-16T23:33:50.738Z,98245.00
2019-02-16T23:36:22.206Z,98254.00
2019-02-16T23:38:53.320Z,98240.00
2019-02-16T23:41:24.392Z,98243.00
2019-02-16T23:43:55.516Z,98242.00
2019-02-16T23:46:26.648Z,98240.00
2019-02-16T23:48:57.780Z,98248.00
2019-02-16T23:51:28.890Z,98242.00
2019-02-16T23:54:00.379Z,98245.00
2019-02-16T23:56:32.240Z,98236.00
2019-02-16T23:59:03.368Z,98228.00
